Time;durP1;ratioP1;P1;durP2;ratioP2;P2;SDS_P1;SDS_P2;PMS_P1;PMS_P2;Temp;Humidity;BMP_temperature;BMP_pressure;BME280_temperature;BME280_humidity;BME280_pressure;Samples;Min_cycle;Max_cycle;Signal;HPM_P1;HPM_P2
2023/06/14 00:01:45;;;;;;;3.20;1.50;;;16.70;85.30;;;;;;5076326;28;20177;-88
2023/06/14 00:04:16;;;;;;;4.45;1.67;;;16.70;86.40;;;;;;5076298;28;20204;-88
2023/06/14 00:06:45;;;;;;;2.85;1.58;;;16.70;86.00;;;;;;5075652;28;20212;-87
2023/06/14 00:09:17;;;;;;;3.20;1.83;;;16.70;85.60;;;;;;5075771;28;20169;-87
2023/06/14 00:11:43;;;;;;;1.80;1.60;;;16.70;85.90;;;;;;5076240;28;20169;-87
2023/06/14 00:14:09;;;;;;;2.42;1.52;;;16.70;86.00;;;;;;5075749;28;20213;-88
2023/06/14 00:16:35;;;;;;;2.90;1.52;;;16.60;85.70;;;;;;5076172;28;20173;-88
2023/06/14 00:19:04;;;;;;;2.85;1.88;;;16.60;85.90;;;;;;5075598;28;20260;-87
2023/06/14 00:21:31;;;;;;;5.40;2.20;;;16.50;86.00;;;;;;5075672;28;20172;-87
2023/06/14 00:23:58;;;;;;;5.82;1.90;;;16.50;86.80;;;;;;5075197;28;20250;-87
2023/06/14 00:26:26;;;;;;;4.10;1.70;;;16.50;86.40;;;;;;5075903;28;20204;-88
2023/06/14 00:28:52;;;;;;;1.73;1.40;;;16.40;86.40;;;;;;5076011;28;20272;-87
2023/06/14 00:31:18;;;;;;;2.85;1.40;;;16.40;86.40;;;;;;5075841;28;20180;-88
2023/06/14 00:33:44;;;;;;;8.18;1.80;;;16.40;86.70;;;;;;5075598;28;20213;-87
2023/06/14 00:36:10;;;;;;;3.25;1.55;;;16.40;87.10;;;;;;5075530;28;20259;-89
2023/06/14 00:38:36;;;;;;;2.47;1.77;;;16.40;86.80;;;;;;5075788;28;20258;-86
2023/06/14 00:41:01;;;;;;;2.90;1.58;;;16.40;87.00;;;;;;5075376;28;20170;-89
2023/06/14 00:43:27;;;;;;;6.72;1.60;;;16.30;86.70;;;;;;5075680;28;20552;-88
2023/06/14 00:45:53;;;;;;;3.25;1.55;;;16.30;86.70;;;;;;5075544;28;20532;-88
2023/06/14 00:48:19;;;;;;;2.30;1.73;;;16.30;87.20;;;;;;5075530;28;20626;-86
2023/06/14 00:50:45;;;;;;;3.50;1.35;;;16.20;87.00;;;;;;5075217;28;20241;-89
2023/06/14 00:53:15;;;;;;;2.20;1.58;;;16.30;87.10;;;;;;5074356;28;20304;-86
2023/06/14 00:55:41;;;;;;;5.53;1.60;;;16.10;87.20;;;;;;5074167;28;20228;-89
2023/06/14 00:58:08;;;;;;;3.20;1.70;;;16.20;87.30;;;;;;5075224;28;20204;-88
2023/06/14 01:00:34;;;;;;;1.90;1.58;;;16.20;87.40;;;;;;5075206;28;20611;-87
2023/06/14 01:03:01;;;;;;;2.42;1.58;;;16.20;87.60;;;;;;5074817;28;20276;-87
2023/06/14 01:05:27;;;;;;;2.20;1.40;;;16.10;87.80;;;;;;5074861;28;20193;-88
2023/06/14 01:08:20;;;;;;;4.13;1.33;;;16.00;88.10;;;;;;5075236;28;20638;-87
2023/06/14 01:11:02;;;;;;;1.85;1.30;;;16.10;88.20;;;;;;5074992;28;20174;-87
2023/06/14 01:13:35;;;;;;;4.45;1.50;;;16.00;88.40;;;;;;5074462;28;20707;-87
2023/06/14 01:16:03;;;;;;;3.90;1.58;;;16.00;88.60;;;;;;5074782;28;20189;-88
2023/06/14 01:18:29;;;;;;;2.75;1.50;;;16.00;88.60;;;;;;5075188;28;20499;-88
2023/06/14 01:20:56;;;;;;;2.70;1.80;;;15.90;88.40;;;;;;5075783;28;20615;-87
2023/06/14 01:23:23;;;;;;;4.13;1.60;;;15.90;88.70;;;;;;5074664;28;20208;-87
2023/06/14 01:25:52;;;;;;;4.50;1.80;;;15.90;89.00;;;;;;5074717;28;20219;-87
2023/06/14 01:28:20;;;;;;;5.10;1.60;;;15.80;89.00;;;;;;5074438;28;20197;-87
2023/06/14 01:30:53;;;;;;;3.20;1.60;;;15.80;89.30;;;;;;5074713;28;20181;-87
2023/06/14 01:33:21;;;;;;;5.85;1.70;;;15.70;90.00;;;;;;5074284;28;20204;-87
2023/06/14 01:35:49;;;;;;;5.05;1.58;;;15.70;89.50;;;;;;5074736;28;20185;-87
2023/06/14 01:38:17;;;;;;;2.67;1.70;;;15.50;90.20;;;;;;5074680;28;20623;-88
2023/06/14 01:40:44;;;;;;;5.82;1.73;;;15.50;90.40;;;;;;5074359;28;20218;-88
2023/06/14 01:43:13;;;;;;;3.45;1.60;;;15.50;90.40;;;;;;5073835;28;20181;-87
2023/06/14 01:45:40;;;;;;;4.30;1.67;;;15.40;90.70;;;;;;5075716;28;20170;-88
2023/06/14 01:48:06;;;;;;;5.60;1.58;;;15.40;91.00;;;;;;5074533;28;20207;-87
2023/06/14 01:50:32;;;;;;;2.17;1.40;;;15.30;91.00;;;;;;5074603;28;20173;-89
2023/06/14 01:52:58;;;;;;;6.63;1.60;;;15.30;91.00;;;;;;5075039;28;20208;-89
2023/06/14 01:55:26;;;;;;;2.20;1.65;;;15.20;91.00;;;;;;5074153;28;20233;-88
2023/06/14 01:57:53;;;;;;;7.15;1.58;;;15.30;90.90;;;;;;5073890;28;20180;-87
2023/06/14 02:00:19;;;;;;;3.40;1.60;;;15.20;91.00;;;;;;5074253;28;20178;-88
2023/06/14 02:02:45;;;;;;;1.58;1.38;;;15.10;90.90;;;;;;5074310;28;20534;-88
2023/06/14 02:05:11;;;;;;;2.47;1.60;;;15.10;90.90;;;;;;5073642;28;20315;-88
2023/06/14 02:07:38;;;;;;;3.92;1.70;;;15.00;91.10;;;;;;5073667;28;20177;-88
2023/06/14 02:10:04;;;;;;;2.03;1.50;;;15.00;91.30;;;;;;5073756;28;20608;-88
2023/06/14 02:12:30;;;;;;;2.10;1.52;;;15.00;91.30;;;;;;5073750;28;20191;-88
2023/06/14 02:14:56;;;;;;;5.40;1.40;;;15.00;91.30;;;;;;5073662;28;20610;-89
2023/06/14 02:17:22;;;;;;;5.88;1.80;;;14.90;91.40;;;;;;5073705;28;20227;-89
2023/06/14 02:19:48;;;;;;;2.08;1.52;;;14.90;91.40;;;;;;5073330;28;20291;-89
2023/06/14 02:22:15;;;;;;;6.15;1.80;;;14.90;91.40;;;;;;5073505;28;20173;-89
2023/06/14 02:24:41;;;;;;;1.95;1.73;;;14.80;91.60;;;;;;5073442;28;20230;-87
2023/06/14 02:27:10;;;;;;;1.77;1.42;;;14.80;91.60;;;;;;5073597;28;20262;-87
2023/06/14 02:29:36;;;;;;;2.67;1.38;;;14.80;91.80;;;;;;5073844;28;20227;-88
2023/06/14 02:32:02;;;;;;;2.38;1.55;;;14.70;91.90;;;;;;5073440;28;20181;-88
2023/06/14 02:34:28;;;;;;;2.97;1.60;;;14.70;92.10;;;;;;5073451;28;20209;-88
2023/06/14 02:36:55;;;;;;;6.88;1.95;;;14.60;92.10;;;;;;5073293;28;20184;-88
2023/06/14 02:39:23;;;;;;;2.72;1.67;;;14.60;92.10;;;;;;5073342;28;20196;-88
2023/06/14 02:41:52;;;;;;;1.73;1.52;;;14.60;92.20;;;;;;5073333;28;20206;-89
2023/06/14 02:44:18;;;;;;;2.22;1.45;;;14.60;92.40;;;;;;5073167;28;20673;-88
2023/06/14 02:46:45;;;;;;;2.08;1.50;;;14.60;92.40;;;;;;5073275;28;20185;-88
2023/06/14 02:49:11;;;;;;;2.65;1.77;;;14.50;92.50;;;;;;5073292;28;20211;-88
2023/06/14 02:51:37;;;;;;;1.80;1.27;;;14.50;92.90;;;;;;5073123;28;20672;-90
2023/06/14 02:54:03;;;;;;;2.08;1.60;;;14.40;92.80;;;;;;5072940;28;20228;-88
2023/06/14 02:56:29;;;;;;;9.75;1.67;;;14.40;93.20;;;;;;5073247;28;20311;-88
2023/06/14 02:58:55;;;;;;;3.63;1.60;;;14.30;93.30;;;;;;5073119;28;20188;-88
2023/06/14 03:01:33;;;;;;;2.05;1.48;;;14.30;93.40;;;;;;5073178;28;20169;-88
2023/06/14 03:03:59;;;;;;;3.95;1.48;;;14.30;93.40;;;;;;5073070;28;20173;-88
2023/06/14 03:06:25;;;;;;;3.28;1.77;;;14.30;93.70;;;;;;5072975;28;20242;-88
2023/06/14 03:08:53;;;;;;;2.75;1.60;;;14.30;93.50;;;;;;5073141;28;20181;-89
2023/06/14 03:11:20;;;;;;;2.85;1.88;;;14.30;93.80;;;;;;5073128;28;20264;-88
2023/06/14 03:13:46;;;;;;;4.80;1.58;;;14.20;93.80;;;;;;5072894;28;20216;-88
2023/06/14 03:16:15;;;;;;;3.65;1.92;;;14.20;94.00;;;;;;5074282;28;20165;-88
2023/06/14 03:18:40;;;;;;;6.75;2.00;;;14.20;94.20;;;;;;5076376;28;20181;-88
2023/06/14 03:21:08;;;;;;;2.20;1.80;;;14.20;94.40;;;;;;5077125;28;20176;-88
2023/06/14 03:23:34;;;;;;;2.53;1.60;;;14.10;94.70;;;;;;5077166;28;20230;-87
2023/06/14 03:26:00;;;;;;;3.85;1.60;;;14.10;94.70;;;;;;5076923;28;20173;-86
2023/06/14 03:28:26;;;;;;;3.42;1.63;;;14.10;94.50;;;;;;5077168;28;20181;-88
2023/06/14 03:30:51;;;;;;;4.50;1.50;;;14.10;94.70;;;;;;5076869;28;20264;-88
2023/06/14 03:33:17;;;;;;;2.38;1.58;;;14.10;94.70;;;;;;5076546;28;20665;-88
2023/06/14 03:35:43;;;;;;;2.20;1.48;;;14.10;94.60;;;;;;5076401;28;20518;-88
2023/06/14 03:38:09;;;;;;;1.98;1.50;;;14.20;94.80;;;;;;5077062;28;20632;-87
2023/06/14 03:40:35;;;;;;;3.22;1.67;;;14.10;94.70;;;;;;5076999;28;20178;-86
2023/06/14 03:43:00;;;;;;;2.15;1.60;;;14.10;94.90;;;;;;5076625;28;20190;-88
2023/06/14 03:45:26;;;;;;;3.15;1.67;;;14.10;95.00;;;;;;5076712;28;20201;-87
2023/06/14 03:47:52;;;;;;;6.82;1.95;;;14.10;95.10;;;;;;5076630;28;20177;-87
2023/06/14 03:50:18;;;;;;;4.78;1.73;;;14.10;95.10;;;;;;5076690;28;20165;-87
2023/06/14 03:52:44;;;;;;;3.33;1.70;;;14.20;95.10;;;;;;5076406;28;20181;-87
2023/06/14 03:55:13;;;;;;;2.17;1.35;;;14.20;95.10;;;;;;5076357;28;20271;-87
2023/06/14 03:57:38;;;;;;;1.88;1.40;;;14.20;95.10;;;;;;5076685;28;20177;-87
2023/06/14 04:00:05;;;;;;;1.88;1.48;;;14.20;94.90;;;;;;5076123;28;20189;-87
2023/06/14 04:02:31;;;;;;;4.40;1.88;;;14.10;95.20;;;;;;5075887;28;20363;-86
2023/06/14 04:04:57;;;;;;;3.65;1.75;;;14.10;95.70;;;;;;5076687;28;20223;-87
2023/06/14 04:07:24;;;;;;;2.85;1.90;;;14.10;95.40;;;;;;5076234;28;20169;-87
2023/06/14 04:09:50;;;;;;;1.90;1.40;;;14.10;95.70;;;;;;5076269;28;20209;-86
2023/06/14 04:12:16;;;;;;;4.60;1.80;;;14.20;95.80;;;;;;5077425;28;20197;-86
2023/06/14 04:14:42;;;;;;;4.78;1.95;;;14.20;95.80;;;;;;5075802;28;20205;-87
2023/06/14 04:17:07;;;;;;;2.38;1.70;;;14.10;96.80;;;;;;5075976;28;20524;-87
2023/06/14 04:19:33;;;;;;;2.40;1.70;;;14.10;96.70;;;;;;5076060;28;20643;-87
2023/06/14 04:22:01;;;;;;;2.13;1.60;;;14.10;96.40;;;;;;5075998;28;20260;-87
2023/06/14 04:24:31;;;;;;;3.83;1.83;;;14.10;96.80;;;;;;5076931;28;20256;-87
2023/06/14 04:26:58;;;;;;;3.55;1.80;;;14.10;96.80;;;;;;5076125;28;20177;-90
2023/06/14 04:29:26;;;;;;;3.53;1.52;;;14.20;97.20;;;;;;5074959;28;20264;-88
2023/06/14 04:31:54;;;;;;;5.63;1.80;;;14.20;97.00;;;;;;5075774;28;20182;-89
2023/06/14 04:34:21;;;;;;;5.18;1.80;;;14.30;96.80;;;;;;5076668;28;20211;-86
2023/06/14 04:36:52;;;;;;;2.00;1.77;;;14.30;97.00;;;;;;5075766;28;20184;-86
2023/06/14 04:39:22;;;;;;;3.75;1.60;;;14.50;96.90;;;;;;5075906;28;20498;-87
2023/06/14 04:41:52;;;;;;;4.47;1.65;;;14.60;96.80;;;;;;5075890;28;20260;-88
2023/06/14 04:44:19;;;;;;;3.20;1.80;;;14.70;96.60;;;;;;5075614;28;20181;-88
2023/06/14 04:46:48;;;;;;;4.65;1.80;;;14.90;96.50;;;;;;5075841;28;20200;-87
2023/06/14 04:49:15;;;;;;;2.30;1.83;;;15.10;96.30;;;;;;5075467;28;20611;-87
2023/06/14 04:51:42;;;;;;;5.93;2.60;;;15.30;96.10;;;;;;5075662;28;20268;-88
2023/06/14 04:54:14;;;;;;;3.05;2.00;;;15.40;95.80;;;;;;5074750;28;20233;-88
2023/06/14 04:56:44;;;;;;;3.92;1.80;;;15.50;95.70;;;;;;5075059;28;20177;-87
2023/06/14 04:59:14;;;;;;;3.58;1.80;;;15.70;95.80;;;;;;5074780;28;20188;-88
2023/06/14 05:01:40;;;;;;;3.90;1.98;;;15.70;95.10;;;;;;5076419;28;20245;-89
2023/06/14 05:04:06;;;;;;;4.47;1.98;;;15.60;95.40;;;;;;5075845;28;20177;-88
2023/06/14 05:06:32;;;;;;;3.35;1.90;;;15.60;95.30;;;;;;5055265;28;20185;-89
2023/06/14 05:08:58;;;;;;;6.13;2.03;;;15.60;95.60;;;;;;5054751;28;20184;-87
2023/06/14 05:11:24;;;;;;;3.25;1.80;;;15.80;95.60;;;;;;5054849;28;20170;-88
2023/06/14 05:13:51;;;;;;;3.42;1.98;;;15.90;95.50;;;;;;5054659;28;20262;-89
2023/06/14 05:16:19;;;;;;;4.18;2.08;;;15.90;95.40;;;;;;5054997;28;20185;-87
2023/06/14 05:18:47;;;;;;;4.03;1.98;;;15.90;95.20;;;;;;5055059;28;20523;-87
2023/06/14 05:21:17;;;;;;;4.35;1.90;;;16.00;95.30;;;;;;5054964;28;20175;-88
2023/06/14 05:23:44;;;;;;;5.80;2.08;;;16.00;95.30;;;;;;5055637;28;20227;-87
2023/06/14 05:26:10;;;;;;;4.13;2.13;;;16.10;95.70;;;;;;5054752;28;20204;-88
2023/06/14 05:28:37;;;;;;;8.30;2.13;;;16.20;94.70;;;;;;5054510;28;20621;-86
2023/06/14 05:31:03;;;;;;;2.85;2.10;;;16.20;94.90;;;;;;5054685;28;20166;-88
2023/06/14 05:33:28;;;;;;;4.43;2.03;;;16.20;94.50;;;;;;5054400;28;20228;-88
2023/06/14 05:35:55;;;;;;;2.72;2.03;;;16.10;94.60;;;;;;5070924;28;20244;-86
2023/06/14 05:38:21;;;;;;;7.75;2.20;;;16.10;94.80;;;;;;5074324;28;20181;-87
2023/06/14 05:40:46;;;;;;;3.88;2.30;;;16.10;94.90;;;;;;5073649;28;20681;-89
2023/06/14 05:43:12;;;;;;;6.43;2.20;;;16.20;95.10;;;;;;5074486;28;20177;-88
2023/06/14 05:45:38;;;;;;;4.57;2.50;;;16.20;95.30;;;;;;5074107;28;20600;-86
2023/06/14 05:48:04;;;;;;;5.15;2.30;;;16.20;94.70;;;;;;5074247;28;20212;-87
2023/06/14 05:50:30;;;;;;;3.28;2.25;;;16.20;94.90;;;;;;5074147;28;20181;-88
2023/06/14 05:52:56;;;;;;;3.60;1.92;;;16.20;94.70;;;;;;5073835;28;20201;-87
2023/06/14 05:55:22;;;;;;;3.65;2.33;;;16.30;95.00;;;;;;5074121;28;20686;-88
2023/06/14 05:57:48;;;;;;;4.32;2.30;;;16.30;95.30;;;;;;5074237;28;20630;-90
2023/06/14 06:00:15;;;;;;;3.92;2.67;;;16.40;95.00;;;;;;5073947;28;20607;-88
2023/06/14 06:02:43;;;;;;;3.88;2.47;;;16.40;94.90;;;;;;5074197;28;20184;-89
2023/06/14 06:05:10;;;;;;;4.78;2.63;;;16.60;95.20;;;;;;5073912;28;20187;-86
2023/06/14 06:07:37;;;;;;;2.85;2.25;;;16.50;94.60;;;;;;5073708;28;20497;-86
2023/06/14 06:10:03;;;;;;;5.22;2.45;;;16.50;94.60;;;;;;5073908;28;20177;-89
2023/06/14 06:12:29;;;;;;;3.20;2.28;;;16.60;94.50;;;;;;5073788;28;20607;-89
2023/06/14 06:14:55;;;;;;;2.70;2.03;;;16.60;94.00;;;;;;5073415;28;20556;-88
2023/06/14 06:17:21;;;;;;;6.30;2.63;;;16.70;94.60;;;;;;5073762;28;20177;-87
2023/06/14 06:19:47;;;;;;;5.60;2.55;;;16.80;94.30;;;;;;5073495;28;20673;-89
2023/06/14 06:22:12;;;;;;;7.15;2.15;;;16.80;94.10;;;;;;5073374;28;20178;-88
2023/06/14 06:24:38;;;;;;;4.78;2.22;;;16.90;93.80;;;;;;5073598;28;20184;-89
2023/06/14 06:27:04;;;;;;;2.65;2.03;;;17.00;94.00;;;;;;5073546;28;20218;-90
2023/06/14 06:29:30;;;;;;;2.83;2.00;;;17.00;93.60;;;;;;5073233;28;20187;-89
2023/06/14 06:31:56;;;;;;;6.35;2.65;;;17.10;94.00;;;;;;5073601;28;20256;-90
2023/06/14 06:34:22;;;;;;;5.88;2.35;;;17.20;93.60;;;;;;5073025;28;20240;-90
2023/06/14 06:36:48;;;;;;;4.78;2.33;;;17.10;93.40;;;;;;5073340;28;20238;-89
2023/06/14 06:39:14;;;;;;;4.00;2.15;;;17.20;93.80;;;;;;5073025;28;20506;-90
2023/06/14 06:41:40;;;;;;;4.57;2.25;;;17.20;93.50;;;;;;5073831;28;20204;-90
2023/06/14 06:44:06;;;;;;;3.95;2.15;;;17.30;93.50;;;;;;5073223;28;20213;-90
2023/06/14 06:46:35;;;;;;;2.95;2.17;;;17.40;94.20;;;;;;5073584;28;20173;-88
2023/06/14 06:49:01;;;;;;;3.95;2.58;;;17.50;94.10;;;;;;5072877;28;20238;-88
2023/06/14 06:51:26;;;;;;;4.20;2.00;;;17.50;93.40;;;;;;5073036;28;20543;-85
2023/06/14 06:53:53;;;;;;;4.35;2.10;;;17.50;93.40;;;;;;5072813;28;20219;-89
2023/06/14 06:56:20;;;;;;;4.78;2.40;;;17.70;93.50;;;;;;5074481;28;20204;-87
2023/06/14 06:58:46;;;;;;;5.25;2.72;;;17.80;92.90;;;;;;5073071;28;20177;-89
2023/06/14 07:01:13;;;;;;;2.53;2.05;;;17.80;93.20;;;;;;5073152;28;20521;-90
2023/06/14 07:03:38;;;;;;;2.67;2.30;;;18.00;93.20;;;;;;5072920;28;20184;-91
2023/06/14 07:06:04;;;;;;;4.63;1.80;;;18.20;92.30;;;;;;5073060;28;20185;-89
2023/06/14 07:08:30;;;;;;;3.97;2.40;;;18.30;92.10;;;;;;5073367;28;20196;-91
2023/06/14 07:10:55;;;;;;;2.17;1.98;;;18.50;91.20;;;;;;5073144;28;20177;-90
2023/06/14 07:13:21;;;;;;;2.45;2.08;;;18.50;91.30;;;;;;5072683;28;20561;-88
2023/06/14 07:15:47;;;;;;;2.95;2.20;;;18.70;91.40;;;;;;5073177;28;20177;-91
2023/06/14 07:18:13;;;;;;;2.92;2.15;;;18.90;90.70;;;;;;5073014;28;20702;-89
2023/06/14 07:20:40;;;;;;;3.33;2.10;;;19.10;90.40;;;;;;5072868;28;20213;-93
2023/06/14 07:23:06;;;;;;;4.25;2.05;;;19.20;90.60;;;;;;5073027;28;20204;-93
2023/06/14 07:25:31;;;;;;;2.60;2.20;;;19.20;90.40;;;;;;5072610;28;20671;-90
2023/06/14 07:27:57;;;;;;;4.15;1.92;;;19.30;90.70;;;;;;5073137;28;20184;-90
2023/06/14 07:30:25;;;;;;;3.90;2.20;;;19.30;90.70;;;;;;5072850;28;20181;-89
2023/06/14 07:32:52;;;;;;;3.05;2.05;;;19.30;90.00;;;;;;5072648;28;20170;-88
2023/06/14 07:35:18;;;;;;;3.05;1.92;;;19.40;90.20;;;;;;5072981;28;20181;-90
2023/06/14 07:37:46;;;;;;;2.33;1.85;;;19.60;90.50;;;;;;5072886;28;20188;-88
2023/06/14 07:40:13;;;;;;;2.83;1.67;;;19.70;89.10;;;;;;5072794;28;20203;-91
2023/06/14 07:42:38;;;;;;;2.25;1.83;;;19.80;90.10;;;;;;5072871;28;20181;-89
2023/06/14 07:45:05;;;;;;;2.17;1.80;;;20.00;88.90;;;;;;5072585;28;20193;-93
2023/06/14 07:47:31;;;;;;;4.88;1.95;;;20.20;87.60;;;;;;5072692;28;20219;-91
2023/06/14 07:49:57;;;;;;;2.85;2.10;;;20.30;87.50;;;;;;5073041;28;20192;-90
2023/06/14 07:52:23;;;;;;;3.08;1.90;;;20.30;87.70;;;;;;5072878;28;20174;-92
2023/06/14 07:54:48;;;;;;;2.17;1.90;;;20.50;87.00;;;;;;5072588;28;20233;-91
2023/06/14 07:57:14;;;;;;;3.55;2.03;;;20.50;87.10;;;;;;5072376;28;20173;-93
2023/06/14 07:59:41;;;;;;;2.60;2.00;;;20.50;86.80;;;;;;5072315;28;20527;-94
2023/06/14 08:02:07;;;;;;;2.47;1.77;;;20.20;85.80;;;;;;5072608;28;20204;-91
2023/06/14 08:04:33;;;;;;;2.90;1.80;;;20.10;85.80;;;;;;5075604;28;20209;-91
2023/06/14 08:07:00;;;;;;;3.15;2.10;;;20.20;86.10;;;;;;5076363;28;20181;-91
2023/06/14 08:09:28;;;;;;;2.53;1.80;;;20.40;86.90;;;;;;5076624;28;20181;-90
2023/06/14 08:11:54;;;;;;;2.90;2.03;;;20.50;84.60;;;;;;5076341;28;20222;-91
2023/06/14 08:14:20;;;;;;;3.58;1.80;;;20.50;85.00;;;;;;5075226;28;20213;-92
2023/06/14 08:16:49;;;;;;;3.10;1.85;;;20.70;85.70;;;;;;5076353;28;20188;-93
2023/06/14 08:19:16;;;;;;;1.80;1.70;;;20.80;85.40;;;;;;5076177;28;20660;-92
2023/06/14 08:21:43;;;;;;;2.33;1.80;;;20.90;84.80;;;;;;5076159;28;20231;-92
2023/06/14 08:24:12;;;;;;;6.35;1.98;;;21.10;84.40;;;;;;5076130;28;20231;-92
2023/06/14 08:26:39;;;;;;;2.22;1.67;;;21.20;84.80;;;;;;5076138;28;20177;-90
2023/06/14 08:29:06;;;;;;;2.40;1.85;;;21.30;83.10;;;;;;5075606;28;20173;-93
2023/06/14 08:31:32;;;;;;;2.10;1.88;;;21.30;83.20;;;;;;5076180;28;20185;-89
2023/06/14 08:33:58;;;;;;;3.58;2.10;;;21.40;85.20;;;;;;5075817;28;20208;-93
2023/06/14 08:36:25;;;;;;;2.75;1.90;;;21.20;83.70;;;;;;5076254;28;20561;-91
2023/06/14 08:38:50;;;;;;;2.75;1.77;;;21.40;83.70;;;;;;5075834;28;20189;-89
2023/06/14 08:41:23;;;;;;;2.45;2.00;;;21.60;82.20;;;;;;5075441;28;20173;-90
2023/06/14 08:43:49;;;;;;;2.30;1.90;;;21.60;81.30;;;;;;5075255;28;20189;-89
2023/06/14 08:46:19;;;;;;;3.75;2.05;;;21.80;81.30;;;;;;5075820;28;20230;-89
2023/06/14 08:48:49;;;;;;;5.00;1.90;;;21.80;81.80;;;;;;5075840;28;20173;-90
2023/06/14 08:51:22;;;;;;;2.35;1.73;;;21.80;80.40;;;;;;5076024;28;20517;-88
2023/06/14 08:53:57;;;;;;;3.00;2.40;;;21.90;82.00;;;;;;5075220;28;20677;-88
2023/06/14 08:56:26;;;;;;;4.43;1.90;;;21.90;79.20;;;;;;5075372;28;20545;-93
2023/06/14 08:58:52;;;;;;;2.15;1.80;;;22.00;81.10;;;;;;5075625;28;20181;-89
2023/06/14 09:01:19;;;;;;;3.13;1.90;;;22.00;78.30;;;;;;5075131;28;20607;-89
2023/06/14 09:03:45;;;;;;;2.83;2.00;;;22.00;77.80;;;;;;5075166;28;20185;-87
2023/06/14 09:06:13;;;;;;;6.93;2.15;;;22.00;78.40;;;;;;5075236;28;20254;-91
2023/06/14 09:08:47;;;;;;;2.83;1.63;;;22.10;77.90;;;;;;5074990;28;20189;-92
2023/06/14 09:11:14;;;;;;;3.42;1.70;;;22.20;80.00;;;;;;5075180;28;20165;-88
2023/06/14 09:13:40;;;;;;;2.42;1.83;;;22.40;79.50;;;;;;5074915;28;20258;-90
2023/06/14 09:16:07;;;;;;;2.17;1.60;;;22.50;78.10;;;;;;5073834;28;20203;-88
2023/06/14 09:18:38;;;;;;;2.65;1.73;;;22.60;76.80;;;;;;5076348;28;20174;-90
2023/06/14 09:21:06;;;;;;;3.15;1.65;;;22.70;77.40;;;;;;5074976;28;20187;-92
2023/06/14 09:23:37;;;;;;;2.53;1.80;;;22.80;78.60;;;;;;5074941;28;20173;-91
2023/06/14 09:26:10;;;;;;;4.03;1.80;;;22.40;77.70;;;;;;5074850;28;20169;-87
2023/06/14 09:28:40;;;;;;;2.40;2.00;;;22.40;78.50;;;;;;5074988;28;20256;-90
2023/06/14 09:31:08;;;;;;;4.38;1.90;;;22.50;78.90;;;;;;5074509;28;20272;-92
2023/06/14 09:33:34;;;;;;;2.60;2.15;;;22.70;79.50;;;;;;5074359;28;20205;-90
2023/06/14 09:36:00;;;;;;;3.50;1.88;;;22.50;77.50;;;;;;5073791;28;20185;-89
2023/06/14 09:38:26;;;;;;;5.75;1.77;;;22.50;78.30;;;;;;5074822;28;20177;-93
2023/06/14 09:40:52;;;;;;;2.80;1.98;;;22.40;77.60;;;;;;5074303;28;20177;-92
2023/06/14 09:43:19;;;;;;;2.45;1.65;;;22.30;78.20;;;;;;5074445;28;20234;-86
2023/06/14 09:45:48;;;;;;;4.50;2.33;;;22.60;78.30;;;;;;5075653;28;20173;-88
2023/06/14 09:48:17;;;;;;;3.58;1.83;;;22.70;76.80;;;;;;5074364;28;20181;-90
2023/06/14 09:50:47;;;;;;;2.50;1.90;;;23.00;79.30;;;;;;5074075;28;20173;-87
2023/06/14 09:53:14;;;;;;;4.72;1.80;;;23.30;76.90;;;;;;5075605;28;20346;-90
2023/06/14 09:55:41;;;;;;;4.38;1.70;;;23.60;76.40;;;;;;5074378;28;20370;-86
2023/06/14 09:58:09;;;;;;;3.63;2.00;;;23.80;77.10;;;;;;5074511;28;20174;-91
2023/06/14 10:00:36;;;;;;;1.83;1.60;;;23.60;77.30;;;;;;5074217;28;20178;-90
2023/06/14 10:03:14;;;;;;;3.63;1.80;;;23.50;75.90;;;;;;5074378;28;20173;-90
2023/06/14 10:05:44;;;;;;;4.68;2.42;;;23.40;79.20;;;;;;5073978;28;20720;-88
2023/06/14 10:08:15;;;;;;;4.97;1.92;;;23.00;76.90;;;;;;5074217;28;20183;-89
2023/06/14 10:10:44;;;;;;;5.68;2.22;;;23.30;79.30;;;;;;5073820;28;20520;-90
2023/06/14 10:13:11;;;;;;;4.22;2.25;;;23.60;78.60;;;;;;5073618;28;20197;-87
2023/06/14 10:16:10;;;;;;;3.63;2.10;;;23.30;76.00;;;;;;5074300;28;20190;-89
2023/06/14 10:19:04;;;;;;;5.65;2.53;;;23.00;77.60;;;;;;5076645;28;20165;-88
2023/06/14 10:21:53;;;;;;;6.18;2.60;;;22.60;78.50;;;;;;5057262;28;20276;-90
2023/06/14 10:24:24;;;;;;;4.18;2.53;;;22.30;80.10;;;;;;5074824;28;20196;-89
2023/06/14 10:26:58;;;;;;;4.03;2.42;;;22.00;81.40;;;;;;5074672;28;20176;-89
2023/06/14 10:29:24;;;;;;;4.15;2.25;;;21.90;82.90;;;;;;5075140;28;20162;-89
2023/06/14 10:31:56;;;;;;;3.90;2.40;;;21.90;82.90;;;;;;5074193;28;20173;-87
2023/06/14 10:34:28;;;;;;;2.83;2.45;;;21.70;82.60;;;;;;5074373;28;20207;-89
2023/06/14 10:37:10;;;;;;;4.60;2.55;;;21.80;82.80;;;;;;5074054;28;20169;-89
2023/06/14 10:39:45;;;;;;;4.25;2.60;;;21.80;83.40;;;;;;5074214;28;20193;-89
2023/06/14 10:42:12;;;;;;;3.60;2.33;;;22.10;83.70;;;;;;5073880;28;20176;-91
2023/06/14 10:44:39;;;;;;;3.97;2.70;;;22.60;83.90;;;;;;5073522;28;20172;-92
2023/06/14 10:47:24;;;;;;;2.97;2.45;;;22.80;82.80;;;;;;5073811;28;20181;-88
2023/06/14 10:50:19;;;;;;;4.70;2.60;;;22.90;82.40;;;;;;5073063;28;20193;-88
2023/06/14 10:52:47;;;;;;;4.93;2.30;;;23.00;81.40;;;;;;5071313;28;20196;-89
2023/06/14 10:55:22;;;;;;;5.85;2.60;;;22.90;81.50;;;;;;5073232;28;20789;-88
2023/06/14 10:57:55;;;;;;;7.13;2.83;;;22.80;81.40;;;;;;5073950;28;20177;-88
2023/06/14 11:00:30;;;;;;;6.70;2.83;;;22.70;80.80;;;;;;5073418;28;20165;-87
2023/06/14 11:03:27;;;;;;;4.85;2.55;;;23.00;81.30;;;;;;5072959;28;20199;-88
2023/06/14 11:05:55;;;;;;;3.13;2.50;;;23.20;81.90;;;;;;5072908;28;20243;-87
2023/06/14 11:08:45;;;;;;;6.25;2.65;;;23.20;80.70;;;;;;5074657;28;20177;-91
2023/06/14 11:11:12;;;;;;;4.63;2.42;;;23.00;80.90;;;;;;5073175;28;20181;-90
2023/06/14 11:13:44;;;;;;;3.75;2.63;;;22.60;81.10;;;;;;5072869;28;20546;-89
2023/06/14 11:16:12;;;;;;;5.50;2.47;;;22.50;81.90;;;;;;5073346;28;20577;-88
2023/06/14 11:18:38;;;;;;;9.13;2.40;;;22.40;81.80;;;;;;5073045;28;20272;-87
2023/06/14 11:21:04;;;;;;;5.03;2.30;;;22.40;83.30;;;;;;5073588;28;20204;-90
2023/06/14 11:23:30;;;;;;;5.15;2.65;;;22.40;82.60;;;;;;5073017;28;20180;-86
2023/06/14 11:25:56;;;;;;;6.53;2.60;;;22.50;82.00;;;;;;5072737;28;20615;-88
2023/06/14 11:28:23;;;;;;;4.93;2.53;;;22.90;82.00;;;;;;5073222;28;20512;-89
2023/06/14 11:30:59;;;;;;;3.60;2.22;;;23.40;81.50;;;;;;5073024;28;20677;-86
2023/06/14 11:33:25;;;;;;;5.22;2.40;;;23.60;79.10;;;;;;5072674;28;20235;-89
2023/06/14 11:35:52;;;;;;;5.32;2.28;;;23.50;77.60;;;;;;5072629;28;20220;-89
2023/06/14 11:38:18;;;;;;;3.35;2.63;;;23.40;79.70;;;;;;5073742;28;20177;-87
2023/06/14 11:40:43;;;;;;;7.22;2.55;;;23.60;79.20;;;;;;5076485;28;20176;-89
2023/06/14 11:43:09;;;;;;;4.75;2.47;;;23.60;77.80;;;;;;5077048;28;20200;-87
2023/06/14 11:45:35;;;;;;;6.38;2.38;;;23.30;77.60;;;;;;5076863;28;20169;-88
2023/06/14 11:48:01;;;;;;;5.22;2.47;;;23.40;78.60;;;;;;5076851;28;20181;-89
2023/06/14 11:50:27;;;;;;;9.80;2.60;;;23.40;78.90;;;;;;5076651;28;20201;-87
2023/06/14 11:52:59;;;;;;;3.10;2.17;;;23.60;78.50;;;;;;5076387;28;20228;-88
2023/06/14 11:55:25;;;;;;;2.72;2.20;;;23.60;78.70;;;;;;5077552;28;20229;-87
2023/06/14 11:57:53;;;;;;;4.45;2.28;;;23.70;76.90;;;;;;5076215;28;20180;-88
2023/06/14 12:00:21;;;;;;;4.63;2.30;;;23.70;77.30;;;;;;5076525;28;20173;-88
2023/06/14 12:02:56;;;;;;;6.50;2.33;;;23.40;76.40;;;;;;5076554;28;20252;-89
2023/06/14 12:05:23;;;;;;;5.20;2.60;;;23.60;75.90;;;;;;5076162;28;20191;-86
2023/06/14 12:07:50;;;;;;;4.55;2.70;;;23.50;76.50;;;;;;5076468;28;20780;-87
2023/06/14 12:10:16;;;;;;;6.85;2.55;;;23.50;77.90;;;;;;5076129;28;20533;-87
2023/06/14 12:12:43;;;;;;;6.38;2.70;;;23.40;76.30;;;;;;5076284;28;20177;-88
2023/06/14 12:15:12;;;;;;;4.53;2.55;;;23.30;77.30;;;;;;5076239;28;20212;-88
2023/06/14 12:17:42;;;;;;;6.68;2.50;;;23.20;78.10;;;;;;5076197;28;20683;-89
2023/06/14 12:20:13;;;;;;;5.18;2.50;;;23.10;78.30;;;;;;5075227;28;20238;-87
2023/06/14 12:22:46;;;;;;;3.63;2.30;;;23.10;76.80;;;;;;5075948;28;20165;-86
2023/06/14 12:25:27;;;;;;;5.30;2.55;;;23.00;77.30;;;;;;5076263;28;20173;-86
2023/06/14 12:27:56;;;;;;;6.07;2.47;;;23.20;76.90;;;;;;5077426;28;20157;-87
2023/06/14 12:30:22;;;;;;;5.05;2.40;;;23.70;76.90;;;;;;5076106;28;20181;-87
2023/06/14 12:32:48;;;;;;;5.88;2.50;;;24.20;76.10;;;;;;5075617;28;20319;-88
2023/06/14 12:35:14;;;;;;;2.85;2.35;;;24.40;74.20;;;;;;5075453;28;20197;-88
2023/06/14 12:37:40;;;;;;;5.65;2.50;;;24.30;74.50;;;;;;5075932;28;20184;-87
2023/06/14 12:40:07;;;;;;;4.30;2.20;;;24.00;73.80;;;;;;5076069;28;20185;-88
2023/06/14 12:42:33;;;;;;;3.65;2.63;;;23.70;75.10;;;;;;5075837;28;20260;-89
2023/06/14 12:45:00;;;;;;;9.45;2.60;;;23.30;75.80;;;;;;5075722;28;20569;-85
2023/06/14 12:47:26;;;;;;;6.32;2.38;;;23.60;76.50;;;;;;5075780;28;20185;-86
2023/06/14 12:49:51;;;;;;;6.15;2.40;;;23.90;74.90;;;;;;5075462;28;20192;-87
2023/06/14 12:52:17;;;;;;;7.45;2.30;;;24.00;74.20;;;;;;5075227;28;20185;-89